createdAt,value
2019-05-17T00:01:57.668Z,101106.83
2019-05-17T00:04:30.490Z,101106.69
2019-05-17T00:07:02.779Z,101099.77
2019-05-17T00:09:37.263Z,101097.56
2019-05-17T00:12:08.989Z,101097.66
2019-05-17T00:14:41.222Z,101096.84
2019-05-17T00:17:13.471Z,101099.50
2019-05-17T00:19:46.461Z,101102.30
2019-05-17T00:22:18.834Z,101093.30
2019-05-17T00:24:51.075Z,101092.00
2019-05-17T00:27:23.785Z,101086.74
2019-05-17T00:29:57.127Z,101084.13
2019-05-17T00:32:29.553Z,101081.45
2019-05-17T00:35:01.935Z,101077.00
2019-05-17T00:37:34.120Z,101067.30
2019-05-17T00:40:07.328Z,101066.45
2019-05-17T00:42:39.685Z,101070.80
2019-05-17T00:45:11.950Z,101057.77
2019-05-17T00:47:46.596Z,101059.81
2019-05-17T00:50:18.544Z,101061.48
2019-05-17T00:52:52.777Z,101057.77
2019-05-17T00:55:26.849Z,101053.38
2019-05-17T00:58:01.684Z,101049.01
2019-05-17T01:00:37.600Z,101047.64
2019-05-17T01:03:09.904Z,101048.78
2019-05-17T01:05:42.180Z,101041.81
2019-05-17T01:08:14.457Z,101042.78
2019-05-17T01:10:47.398Z,101031.89
2019-05-17T01:13:19.986Z,101027.48
2019-05-17T01:15:52.235Z,101026.48
2019-05-17T01:18:26.770Z,101026.55
2019-05-17T01:21:00.684Z,101019.52
2019-05-17T01:23:33.285Z,101024.27
2019-05-17T01:26:07.529Z,101016.90
2019-05-17T01:28:41.460Z,101015.71
2019-05-17T01:31:13.686Z,101015.70
2019-05-17T01:33:47.015Z,101011.50
2019-05-17T01:36:19.591Z,101018.45
2019-05-17T01:38:51.863Z,101012.34
2019-05-17T01:41:24.080Z,101012.79
2019-05-17T01:43:56.942Z,101006.98
2019-05-17T01:46:29.335Z,100999.37
2019-05-17T01:49:01.915Z,101002.70
2019-05-17T01:51:34.245Z,100996.63
2019-05-17T01:54:06.920Z,100992.65
2019-05-17T01:56:39.207Z,100990.44
2019-05-17T01:59:11.765Z,100989.25
2019-05-17T02:01:43.998Z,100981.16
2019-05-17T02:04:17.515Z,100985.08
2019-05-17T02:06:49.946Z,100976.36
2019-05-17T02:09:34.965Z,100974.16
2019-05-17T02:11:57.177Z,100971.91
2019-05-17T02:14:29.709Z,100966.67
2019-05-17T02:17:01.979Z,100961.25
2019-05-17T02:19:34.220Z,100962.08
2019-05-17T02:22:07.462Z,100964.77
2019-05-17T02:24:39.921Z,100969.17
2019-05-17T02:27:12.151Z,100964.52
2019-05-17T02:29:44.391Z,100964.98
2019-05-17T02:32:16.657Z,100970.52
2019-05-17T02:34:52.952Z,100962.56
2019-05-17T02:37:23.899Z,100962.33
2019-05-17T02:40:03.059Z,100953.27
2019-05-17T02:42:32.981Z,100949.96
2019-05-17T02:45:06.101Z,100949.53
2019-05-17T02:47:38.338Z,100954.99
2019-05-17T02:50:12.946Z,100949.39
2019-05-17T02:52:44.486Z,100960.45
2019-05-17T02:55:16.736Z,100960.62
2019-05-17T02:57:49.035Z,100954.86
2019-05-17T03:00:23.947Z,100955.52
2019-05-17T03:02:55.215Z,100957.91
2019-05-17T03:05:27.463Z,100952.41
2019-05-17T03:08:03.622Z,100954.87
2019-05-17T03:10:34.124Z,100955.23
2019-05-17T03:13:06.443Z,100958.58
2019-05-17T03:15:38.711Z,100959.33
2019-05-17T03:18:13.434Z,100959.59
2019-05-17T03:20:46.002Z,100952.02
2019-05-17T03:23:18.240Z,100960.60
2019-05-17T03:25:52.490Z,100956.11
2019-05-17T03:28:25.545Z,100952.89
2019-05-17T03:30:57.762Z,100953.64
2019-05-17T03:33:35.228Z,100960.91
2019-05-17T03:36:06.463Z,100957.00
2019-05-17T03:38:37.861Z,100952.59
2019-05-17T03:41:22.826Z,100953.88
2019-05-17T03:43:44.475Z,100946.45
2019-05-17T03:46:16.905Z,100949.40
2019-05-17T03:48:49.112Z,100943.70
2019-05-17T03:51:23.361Z,100943.98
2019-05-17T03:53:55.310Z,100946.91
2019-05-17T03:56:27.720Z,100935.10
2019-05-17T03:59:03.409Z,100940.73
2019-05-17T04:01:34.077Z,100933.72
2019-05-17T04:04:06.370Z,100936.72
2019-05-17T04:06:38.634Z,100932.88
2019-05-17T04:09:14.066Z,100935.08
2019-05-17T04:11:46.534Z,100929.53
2019-05-17T04:14:18.754Z,100934.50
2019-05-17T04:16:53.671Z,100931.99
2019-05-17T04:19:24.947Z,100932.52
2019-05-17T04:21:57.380Z,100930.88
2019-05-17T04:24:32.449Z,100923.73
2019-05-17T04:27:04.001Z,100926.42
2019-05-17T04:29:36.345Z,100924.59
2019-05-17T04:32:08.645Z,100925.53
2019-05-17T04:34:43.679Z,100920.44
2019-05-17T04:37:14.919Z,100918.67
2019-05-17T04:39:47.150Z,100915.77
2019-05-17T04:42:22.418Z,100916.95
2019-05-17T04:44:53.562Z,100915.64
2019-05-17T04:47:28.200Z,100913.70
2019-05-17T04:50:03.602Z,100918.39
2019-05-17T04:52:34.471Z,100915.50
2019-05-17T04:55:06.799Z,100923.07
2019-05-17T04:57:43.324Z,100921.06
2019-05-17T05:00:14.122Z,100921.83
2019-05-17T05:02:46.411Z,100916.66
2019-05-17T05:05:18.645Z,100917.38
2019-05-17T05:07:53.468Z,100920.54
2019-05-17T05:10:24.901Z,100918.87
2019-05-17T05:12:57.341Z,100918.09
2019-05-17T05:15:32.232Z,100913.16
2019-05-17T05:18:04.164Z,100918.05
2019-05-17T05:20:36.471Z,100917.11
2019-05-17T05:23:08.746Z,100916.28
2019-05-17T05:25:42.994Z,100916.34
2019-05-17T05:28:14.951Z,100913.19
2019-05-17T05:30:47.190Z,100912.18
2019-05-17T05:33:22.167Z,100917.95
2019-05-17T05:35:54.796Z,100918.59
2019-05-17T05:38:27.029Z,100916.08
2019-05-17T05:41:01.597Z,100917.75
2019-05-17T05:43:33.437Z,100918.53
2019-05-17T05:46:05.740Z,100922.09
2019-05-17T05:48:38.014Z,100911.68
2019-05-17T05:51:13.420Z,100915.23
2019-05-17T05:53:44.428Z,100921.88
2019-05-17T05:56:16.704Z,100917.17
2019-05-17T05:58:49.030Z,100913.95
2019-05-17T06:01:21.978Z,100917.32
2019-05-17T06:03:55.576Z,100904.14
2019-05-17T06:06:27.845Z,100901.56
2019-05-17T06:09:02.574Z,100913.07
2019-05-17T06:11:35.630Z,100910.97
2019-05-17T06:14:07.856Z,100913.31
2019-05-17T06:16:42.290Z,100910.38
2019-05-17T06:19:14.135Z,100914.68
2019-05-17T06:21:46.423Z,100904.47
2019-05-17T06:24:18.672Z,100907.75
2019-05-17T06:26:52.518Z,100907.48
2019-05-17T06:29:25.004Z,100906.77
2019-05-17T06:31:57.371Z,100906.39
2019-05-17T06:34:29.667Z,100911.59
2019-05-17T06:37:03.553Z,100907.13
2019-05-17T06:39:35.834Z,100903.42
2019-05-17T06:42:08.053Z,100906.04
2019-05-17T06:44:41.893Z,100904.01
2019-05-17T06:47:15.397Z,100900.31
2019-05-17T06:49:50.503Z,100900.89
2019-05-17T06:52:22.624Z,100904.33
2019-05-17T06:54:55.297Z,100900.20
2019-05-17T06:57:27.580Z,100894.14
2019-05-17T07:00:02.440Z,100894.53
2019-05-17T07:02:36.176Z,100900.31
2019-05-17T07:05:09.893Z,100896.84
2019-05-17T07:07:42.386Z,100894.30
2019-05-17T07:10:14.642Z,100896.15
2019-05-17T07:12:57.831Z,100898.17
2019-05-17T07:15:21.236Z,100894.87
2019-05-17T07:17:53.470Z,100891.56
2019-05-17T07:20:25.718Z,100884.58
2019-05-17T07:23:00.349Z,100882.83
2019-05-17T07:25:32.588Z,100882.07
2019-05-17T07:28:04.845Z,100887.02
2019-05-17T07:30:36.940Z,100885.67
2019-05-17T07:33:10.169Z,100879.72
2019-05-17T07:35:42.915Z,100876.64
2019-05-17T07:38:15.382Z,100874.89
2019-05-17T07:40:49.974Z,100874.89
2019-05-17T07:43:21.969Z,100876.21
2019-05-17T07:45:54.247Z,100864.06
2019-05-17T07:48:26.458Z,100870.63
2019-05-17T07:50:59.381Z,100867.75
2019-05-17T07:53:31.830Z,100869.60
2019-05-17T07:56:04.305Z,100855.88
2019-05-17T07:58:36.539Z,100839.16
2019-05-17T08:01:10.062Z,100842.63
2019-05-17T08:03:42.518Z,100842.54
2019-05-17T08:06:14.802Z,100831.41
2019-05-17T08:08:49.917Z,100838.45
2019-05-17T08:11:20.960Z,100836.50
2019-05-17T08:13:53.271Z,100827.36
2019-05-17T08:16:25.595Z,100831.27
2019-05-17T08:19:00.164Z,100821.24
2019-05-17T08:21:32.193Z,100822.93
2019-05-17T08:24:04.430Z,100824.42
2019-05-17T08:26:36.713Z,100824.09
2019-05-17T08:29:10.984Z,100812.70
2019-05-17T08:31:44.488Z,100810.97
2019-05-17T08:34:16.527Z,100807.01
2019-05-17T08:36:49.849Z,100805.73
2019-05-17T08:39:22.201Z,100804.81
2019-05-17T08:41:54.460Z,100804.27
2019-05-17T08:44:26.697Z,100802.36
2019-05-17T08:46:59.486Z,100810.23
2019-05-17T08:49:31.978Z,100797.64
2019-05-17T08:52:04.210Z,100792.48
2019-05-17T08:54:36.499Z,100788.59
2019-05-17T08:57:09.583Z,100783.38
2019-05-17T08:59:41.892Z,100778.16
2019-05-17T09:02:16.147Z,100781.34
2019-05-17T09:04:49.799Z,100775.65
2019-05-17T09:07:22.224Z,100774.79
2019-05-17T09:09:54.444Z,100762.47
2019-05-17T09:12:26.688Z,100755.47
2019-05-17T09:15:00.434Z,100758.95
2019-05-17T09:17:32.926Z,100754.14
2019-05-17T09:20:05.165Z,100751.06
2019-05-17T09:22:39.651Z,100759.81
2019-05-17T09:25:17.085Z,100755.87
2019-05-17T09:27:45.514Z,100759.78
2019-05-17T09:30:20.201Z,100755.38
2019-05-17T09:32:51.869Z,100755.81
2019-05-17T09:35:25.211Z,100761.90
2019-05-17T09:37:57.439Z,100757.48
2019-05-17T09:40:29.679Z,100759.23
2019-05-17T09:43:02.181Z,100746.99
2019-05-17T09:45:34.417Z,100750.59
2019-05-17T09:48:06.818Z,100741.83
2019-05-17T09:50:39.879Z,100748.41
2019-05-17T09:53:12.468Z,100742.68
2019-05-17T09:55:44.753Z,100745.31
2019-05-17T09:58:21.429Z,100743.13
2019-05-17T10:00:52.360Z,100740.48
2019-05-17T10:03:24.659Z,100735.16
2019-05-17T10:05:56.964Z,100740.83
2019-05-17T10:08:29.223Z,100739.51
2019-05-17T10:11:08.347Z,100739.97
2019-05-17T10:13:35.656Z,100741.39
2019-05-17T10:16:10.140Z,100742.27
2019-05-17T10:18:42.254Z,100733.79
2019-05-17T10:21:14.525Z,100730.41
2019-05-17T10:23:46.763Z,100728.78
2019-05-17T10:26:22.297Z,100720.70
2019-05-17T10:28:54.592Z,100720.97
2019-05-17T10:31:26.829Z,100723.58
2019-05-17T10:34:01.062Z,100714.25
2019-05-17T10:36:33.044Z,100715.83
2019-05-17T10:39:05.282Z,100711.65
2019-05-17T10:41:37.673Z,100712.48
2019-05-17T10:44:09.901Z,100718.27
2019-05-17T10:46:42.246Z,100714.02
2019-05-17T10:49:14.475Z,100719.98
2019-05-17T10:51:46.682Z,100715.20
2019-05-17T10:54:20.598Z,100717.74
2019-05-17T10:56:55.003Z,100718.58
2019-05-17T10:59:27.451Z,100719.05
2019-05-17T11:01:59.824Z,100710.71
2019-05-17T11:04:32.348Z,100714.69
2019-05-17T11:07:04.576Z,100715.55
2019-05-17T11:09:39.862Z,100712.34
2019-05-17T11:12:10.799Z,100707.89
2019-05-17T11:14:52.587Z,100712.23
2019-05-17T11:17:16.966Z,100716.64
2019-05-17T11:19:49.329Z,100713.64
2019-05-17T11:22:21.549Z,100718.41
2019-05-17T11:24:53.892Z,100714.03
2019-05-17T11:27:28.415Z,100708.16
2019-05-17T11:30:03.114Z,100696.73
2019-05-17T11:32:35.422Z,100700.16
2019-05-17T11:35:07.661Z,100699.97
2019-05-17T11:37:39.894Z,100714.42
2019-05-17T11:40:12.195Z,100712.25
2019-05-17T11:42:44.571Z,100699.90
2019-05-17T11:45:27.304Z,100694.03
2019-05-17T11:47:50.963Z,100694.13
2019-05-17T11:50:23.274Z,100694.37
2019-05-17T11:52:55.698Z,100694.62
2019-05-17T11:55:27.924Z,100690.61
2019-05-17T11:58:00.160Z,100696.25
2019-05-17T12:00:32.415Z,100694.73
2019-05-17T12:03:04.721Z,100685.70
2019-05-17T12:05:37.047Z,100685.67
2019-05-17T12:08:09.285Z,100683.59
2019-05-17T12:10:41.631Z,100683.00
2019-05-17T12:13:14.191Z,100685.38
2019-05-17T12:15:46.423Z,100688.30
2019-05-17T12:18:18.651Z,100684.77
2019-05-17T12:20:50.920Z,100680.61
2019-05-17T12:23:24.833Z,100689.59
2019-05-17T12:25:57.624Z,100683.52
2019-05-17T12:28:30.442Z,100685.09
2019-05-17T12:31:03.354Z,100686.53
2019-05-17T12:33:36.240Z,100689.78
2019-05-17T12:36:09.220Z,100688.24
2019-05-17T12:38:41.471Z,100686.77
2019-05-17T12:41:13.761Z,100682.09
2019-05-17T12:43:46.049Z,100687.34
2019-05-17T12:46:18.339Z,100678.91
2019-05-17T12:48:50.574Z,100679.95
2019-05-17T12:51:22.879Z,100676.92
2019-05-17T12:53:55.207Z,100680.24
2019-05-17T12:56:27.522Z,100683.39
2019-05-17T12:58:59.755Z,100680.61
2019-05-17T13:01:32.283Z,100677.11
2019-05-17T13:04:04.555Z,100673.03
2019-05-17T13:06:36.776Z,100680.05
2019-05-17T13:09:09.244Z,100683.16
2019-05-17T13:11:41.529Z,100677.28
2019-05-17T13:14:13.804Z,100674.77
2019-05-17T13:16:46.111Z,100679.53
2019-05-17T13:19:18.330Z,100673.41
2019-05-17T13:21:50.634Z,100674.69
2019-05-17T13:24:22.865Z,100669.79
2019-05-17T13:26:55.430Z,100668.02
2019-05-17T13:29:27.639Z,100673.01
2019-05-17T13:31:59.879Z,100673.97
2019-05-17T13:34:32.209Z,100664.00
2019-05-17T13:37:05.623Z,100678.95
2019-05-17T13:39:38.137Z,100666.92
2019-05-17T13:42:10.404Z,100673.53
2019-05-17T13:44:42.632Z,100674.61
2019-05-17T13:47:14.684Z,100672.09
2019-05-17T13:49:46.915Z,100663.16
2019-05-17T13:52:21.154Z,100668.89
2019-05-17T13:54:53.586Z,100666.91
2019-05-17T13:57:25.888Z,100662.34
2019-05-17T13:59:58.203Z,100661.55
2019-05-17T14:02:30.466Z,100660.31
2019-05-17T14:05:02.718Z,100666.48
2019-05-17T14:07:35.158Z,100666.12
2019-05-17T14:10:07.352Z,100662.67
2019-05-17T14:12:39.663Z,100665.34
2019-05-17T14:15:12.050Z,100661.89
2019-05-17T14:17:44.435Z,100665.36
2019-05-17T14:20:16.707Z,100659.60
2019-05-17T14:22:49.003Z,100663.92
2019-05-17T14:25:21.331Z,100659.13
2019-05-17T14:27:53.532Z,100658.23
2019-05-17T14:30:25.727Z,100660.31
2019-05-17T14:32:58.161Z,100656.88
2019-05-17T14:35:30.407Z,100654.75
2019-05-17T14:38:02.630Z,100650.52
2019-05-17T14:41:05.091Z,100651.09
2019-05-17T14:43:08.993Z,100648.95
2019-05-17T14:45:41.673Z,100656.02
2019-05-17T14:48:13.959Z,100659.12
2019-05-17T14:50:46.238Z,100657.86
2019-05-17T14:53:18.559Z,100655.28
2019-05-17T14:55:50.822Z,100660.56
2019-05-17T14:58:23.123Z,100658.81
2019-05-17T15:00:55.541Z,100665.86
2019-05-17T15:03:28.060Z,100657.95
2019-05-17T15:06:00.361Z,100659.28
2019-05-17T15:08:32.611Z,100656.23
2019-05-17T15:11:04.833Z,100656.23
2019-05-17T15:13:37.095Z,100650.08
2019-05-17T15:16:09.332Z,100648.77
2019-05-17T15:18:41.669Z,100647.02
2019-05-17T15:21:15.582Z,100644.80
2019-05-17T15:23:47.857Z,100637.31
2019-05-17T15:26:20.123Z,100646.14
2019-05-17T15:28:52.737Z,100637.81
2019-05-17T15:31:24.994Z,100633.81
2019-05-17T15:33:57.235Z,100638.63
2019-05-17T15:36:29.555Z,100633.75
2019-05-17T15:39:01.914Z,100632.44
2019-05-17T15:41:35.727Z,100634.22
2019-05-17T15:44:08.366Z,100629.41
2019-05-17T15:46:40.752Z,100630.69
2019-05-17T15:49:13.119Z,100638.15
2019-05-17T15:51:45.376Z,100641.64
2019-05-17T15:54:17.722Z,100639.45
2019-05-17T15:56:50.030Z,100638.11
2019-05-17T15:59:22.285Z,100633.30
2019-05-17T16:01:54.535Z,100635.91
2019-05-17T16:04:26.847Z,100634.17
2019-05-17T16:07:00.691Z,100630.20
2019-05-17T16:09:32.963Z,100629.77
2019-05-17T16:12:05.287Z,100624.50
2019-05-17T16:14:37.590Z,100623.17
2019-05-17T16:17:09.857Z,100620.13
2019-05-17T16:19:42.220Z,100619.68
2019-05-17T16:22:14.623Z,100620.11
2019-05-17T16:24:47.264Z,100615.72
2019-05-17T16:27:19.505Z,100613.98
2019-05-17T16:29:51.805Z,100614.87
2019-05-17T16:32:24.112Z,100607.41
2019-05-17T16:34:56.675Z,100609.17
2019-05-17T16:37:29.150Z,100613.55
2019-05-17T16:40:01.410Z,100610.94
2019-05-17T16:42:33.870Z,100611.38
2019-05-17T16:45:06.153Z,100606.14
2019-05-17T16:47:38.515Z,100607.00
2019-05-17T16:50:10.884Z,100611.84
2019-05-17T16:52:43.381Z,100608.73
2019-05-17T16:55:15.756Z,100612.66
2019-05-17T16:57:48.022Z,100610.92
2019-05-17T17:00:20.499Z,100606.08
2019-05-17T17:02:55.277Z,100599.91
2019-05-17T17:05:30.564Z,100602.08
2019-05-17T17:08:02.904Z,100604.70
2019-05-17T17:10:35.142Z,100603.83
2019-05-17T17:13:07.404Z,100597.70
2019-05-17T17:15:40.033Z,100599.87
2019-05-17T17:18:12.349Z,100600.77
2019-05-17T17:20:44.677Z,100596.42
2019-05-17T17:23:16.999Z,100594.23
2019-05-17T17:25:49.236Z,100604.30
2019-05-17T17:28:24.966Z,100591.61
2019-05-17T17:30:55.588Z,100599.48
2019-05-17T17:33:27.897Z,100594.66
2019-05-17T17:36:00.151Z,100595.09
2019-05-17T17:38:32.522Z,100590.25
2019-05-17T17:41:05.035Z,100596.37
2019-05-17T17:43:37.456Z,100593.31
2019-05-17T17:46:10.520Z,100588.05
2019-05-17T17:48:45.787Z,100588.46
2019-05-17T17:51:16.992Z,100585.41
2019-05-17T17:53:50.748Z,100591.10
2019-05-17T17:56:23.152Z,100592.82
2019-05-17T17:58:55.437Z,100595.00
2019-05-17T18:01:27.704Z,100599.34
2019-05-17T18:04:00.287Z,100596.28
2019-05-17T18:06:32.989Z,100594.05
2019-05-17T18:09:05.301Z,100599.28
2019-05-17T18:11:37.881Z,100599.30
2019-05-17T18:14:13.259Z,100597.12
2019-05-17T18:16:44.166Z,100591.85
2019-05-17T18:19:16.415Z,100590.95
2019-05-17T18:21:48.655Z,100594.91
2019-05-17T18:24:20.944Z,100594.91
2019-05-17T18:26:53.293Z,100592.28
2019-05-17T18:29:25.693Z,100591.82
2019-05-17T18:31:57.985Z,100590.95
2019-05-17T18:34:30.210Z,100595.78
2019-05-17T18:37:04.115Z,100593.59
2019-05-17T18:39:36.443Z,100599.27
2019-05-17T18:42:08.855Z,100602.77
2019-05-17T18:44:41.092Z,100596.19
2019-05-17T18:47:13.566Z,100601.84
2019-05-17T18:49:45.918Z,100606.64
2019-05-17T18:52:18.169Z,100613.62
2019-05-17T18:54:50.434Z,100603.52
2019-05-17T18:57:22.737Z,100614.44
2019-05-17T18:59:55.152Z,100614.38
2019-05-17T19:02:27.401Z,100610.83
2019-05-17T19:04:59.639Z,100610.84
2019-05-17T19:07:31.873Z,100609.94
2019-05-17T19:10:04.326Z,100606.84
2019-05-17T19:12:36.687Z,100603.73
2019-05-17T19:15:08.985Z,100609.00
2019-05-17T19:17:41.234Z,100605.92
2019-05-17T19:20:13.490Z,100607.19
2019-05-17T19:22:46.034Z,100612.40
2019-05-17T19:25:19.354Z,100618.06
2019-05-17T19:27:51.582Z,100619.78
2019-05-17T19:30:25.156Z,100619.75
2019-05-17T19:32:57.355Z,100620.19
2019-05-17T19:35:29.638Z,100616.20
2019-05-17T19:38:01.924Z,100618.38
2019-05-17T19:40:34.294Z,100615.73
2019-05-17T19:43:06.734Z,100620.07
2019-05-17T19:45:39.082Z,100619.19
2019-05-17T19:48:11.309Z,100606.95
2019-05-17T19:50:43.696Z,100621.38
2019-05-17T19:53:16.014Z,100624.44
2019-05-17T19:55:48.554Z,100624.41
2019-05-17T19:58:21.914Z,100620.85
2019-05-17T20:00:54.208Z,100619.05
2019-05-17T20:03:26.471Z,100622.97
2019-05-17T20:05:59.035Z,100623.80
2019-05-17T20:08:31.440Z,100618.92
2019-05-17T20:11:03.700Z,100619.76
2019-05-17T20:13:36.074Z,100617.98
2019-05-17T20:16:08.447Z,100626.74
2019-05-17T20:18:40.830Z,100623.70
2019-05-17T20:21:13.285Z,100621.41
2019-05-17T20:23:45.554Z,100620.02
2019-05-17T20:26:17.813Z,100621.73
2019-05-17T20:28:50.058Z,100618.70
2019-05-17T20:31:22.325Z,100614.74
2019-05-17T20:33:54.576Z,100611.69
2019-05-17T20:36:26.793Z,100613.00
2019-05-17T20:38:59.141Z,100608.53
2019-05-17T20:41:31.389Z,100617.61
2019-05-17T20:44:03.661Z,100615.39
2019-05-17T20:46:35.904Z,100611.45
2019-05-17T20:49:08.126Z,100609.72
2019-05-17T20:51:40.486Z,100601.89
2019-05-17T20:54:12.960Z,100599.78
2019-05-17T20:56:45.262Z,100606.42
2019-05-17T20:59:17.583Z,100605.53
2019-05-17T21:01:50.070Z,100606.91
2019-05-17T21:04:22.283Z,100603.41
2019-05-17T21:06:54.644Z,100598.95
2019-05-17T21:09:26.937Z,100600.66
2019-05-17T21:11:59.176Z,100603.34
2019-05-17T21:14:31.537Z,100597.73
2019-05-17T21:17:03.857Z,100600.38
2019-05-17T21:19:36.110Z,100601.29
2019-05-17T21:22:08.803Z,100595.19
2019-05-17T21:24:41.076Z,100591.72
2019-05-17T21:27:13.315Z,100595.65
2019-05-17T21:29:46.806Z,100598.73
2019-05-17T21:32:20.163Z,100593.91
2019-05-17T21:34:52.513Z,100595.67
2019-05-17T21:37:24.766Z,100594.34
2019-05-17T21:39:57.003Z,100591.71
2019-05-17T21:42:29.412Z,100597.84
2019-05-17T21:45:01.658Z,100599.58
2019-05-17T21:47:33.916Z,100591.69
2019-05-17T21:50:06.170Z,100595.14
2019-05-17T21:52:38.219Z,100600.75
2019-05-17T21:55:10.932Z,100593.31
2019-05-17T21:57:43.338Z,100596.36
2019-05-17T22:00:15.565Z,100595.05
2019-05-17T22:02:49.437Z,100602.52
2019-05-17T22:05:21.756Z,100600.75
2019-05-17T22:07:53.984Z,100598.05
2019-05-17T22:10:26.330Z,100593.17
2019-05-17T22:12:58.643Z,100592.20
2019-05-17T22:15:31.054Z,100598.72
2019-05-17T22:18:03.458Z,100601.73
2019-05-17T22:20:35.729Z,100598.26
2019-05-17T22:23:08.128Z,100593.94
2019-05-17T22:25:40.624Z,100592.66
2019-05-17T22:28:13.590Z,100585.64
2019-05-17T22:30:45.843Z,100590.45
2019-05-17T22:33:18.115Z,100588.75
2019-05-17T22:35:52.878Z,100589.64
2019-05-17T22:38:25.121Z,100588.36
2019-05-17T22:40:57.471Z,100587.90
2019-05-17T22:43:29.702Z,100585.22
2019-05-17T22:46:01.954Z,100589.55
2019-05-17T22:48:34.211Z,100587.81
2019-05-17T22:51:06.419Z,100590.83
2019-05-17T22:53:38.692Z,100582.53
2019-05-17T22:56:10.956Z,100589.94
2019-05-17T22:58:45.210Z,100583.88
2019-05-17T23:01:17.469Z,100581.32
2019-05-17T23:03:49.758Z,100581.32
2019-05-17T23:06:21.998Z,100577.39
2019-05-17T23:08:54.278Z,100577.84
2019-05-17T23:11:26.722Z,100580.89
2019-05-17T23:14:01.003Z,100582.23
2019-05-17T23:16:33.332Z,100583.12
2019-05-17T23:19:05.545Z,100583.58
2019-05-17T23:21:37.833Z,100575.73
2019-05-17T23:24:10.032Z,100579.67
2019-05-17T23:26:42.533Z,100582.32
2019-05-17T23:29:14.800Z,100590.58
2019-05-17T23:31:47.039Z,100584.03
2019-05-17T23:34:19.356Z,100582.23
2019-05-17T23:36:51.640Z,100576.05
2019-05-17T23:39:23.909Z,100582.84
2019-05-17T23:41:56.261Z,100585.27
2019-05-17T23:44:28.498Z,100584.27
2019-05-17T23:47:07.122Z,100582.89
2019-05-17T23:49:34.940Z,100589.48
2019-05-17T23:52:07.357Z,100590.01
2019-05-17T23:54:39.624Z,100587.98
2019-05-17T23:57:11.977Z,100579.76
2019-05-17T23:59:45.273Z,100574.16
